Time;durP1;ratioP1;P1;durP2;ratioP2;P2;SDS_P1;SDS_P2;PMS_P1;PMS_P2;Temp;Humidity;BMP_temperature;BMP_pressure;BME280_temperature;BME280_humidity;BME280_pressure;Samples;Min_cycle;Max_cycle;Signal;HPM_P1;HPM_P2
2024/03/17 00:00:19;;;;;;;11.47;7.43;;;;;;;6.63;100.00;98883.88;4974176;28;20772;-76
2024/03/17 00:02:44;;;;;;;11.17;7.70;;;;;;;6.58;100.00;98886.69;4975617;28;20619;-76
2024/03/17 00:05:12;;;;;;;10.63;7.37;;;;;;;6.60;100.00;98878.75;4975769;28;20305;-76
2024/03/17 00:07:38;;;;;;;12.70;8.57;;;;;;;6.61;100.00;98880.47;4975760;28;20754;-77
2024/03/17 00:10:07;;;;;;;21.60;11.97;;;;;;;6.82;100.00;98890.94;4975826;28;20243;-76
2024/03/17 00:12:32;;;;;;;14.07;9.53;;;;;;;6.82;100.00;98890.06;4975498;28;20802;-76
2024/03/17 00:14:59;;;;;;;15.93;9.17;;;;;;;6.74;100.00;98893.03;4975761;28;20245;-76
2024/03/17 00:17:24;;;;;;;13.87;9.50;;;;;;;6.73;100.00;98880.78;4975636;28;20215;-76
2024/03/17 00:19:51;;;;;;;16.27;9.20;;;;;;;6.69;100.00;98884.50;4975550;28;20723;-76
2024/03/17 00:22:18;;;;;;;13.57;8.70;;;;;;;6.68;100.00;98881.91;4975253;28;20240;-76
2024/03/17 00:24:45;;;;;;;16.07;9.37;;;;;;;6.68;100.00;98888.03;4975706;28;20216;-76
2024/03/17 00:27:11;;;;;;;18.13;10.07;;;;;;;6.69;100.00;98892.38;4975208;28;20240;-76
2024/03/17 00:29:37;;;;;;;14.10;9.30;;;;;;;6.66;100.00;98883.75;4975102;28;20231;-76
2024/03/17 00:32:04;;;;;;;14.40;8.40;;;;;;;6.57;100.00;98877.13;4974930;28;20252;-76
2024/03/17 00:34:30;;;;;;;14.87;8.93;;;;;;;6.53;100.00;98874.69;4975107;28;20212;-76
2024/03/17 00:36:56;;;;;;;12.67;9.23;;;;;;;6.51;100.00;98874.75;4974912;28;20212;-76
2024/03/17 00:39:23;;;;;;;17.80;9.70;;;;;;;6.50;100.00;98867.78;4974980;28;20207;-76
2024/03/17 00:41:49;;;;;;;14.50;9.80;;;;;;;6.47;100.00;98875.78;4974684;28;20598;-76
2024/03/17 00:44:16;;;;;;;13.40;9.57;;;;;;;6.35;100.00;98872.81;4975089;28;20223;-76
2024/03/17 00:46:42;;;;;;;14.47;8.73;;;;;;;6.28;100.00;98863.47;4974916;28;20728;-76
2024/03/17 00:49:08;;;;;;;13.60;8.93;;;;;;;6.31;100.00;98865.97;4974869;28;20304;-76
2024/03/17 00:51:34;;;;;;;11.53;8.07;;;;;;;6.36;100.00;98864.00;4974439;28;20240;-77
2024/03/17 00:54:00;;;;;;;12.30;8.50;;;;;;;6.37;100.00;98870.97;4975093;28;20675;-77
2024/03/17 00:56:27;;;;;;;13.77;8.47;;;;;;;6.35;100.00;98863.16;4974981;28;20211;-77
2024/03/17 00:58:54;;;;;;;13.83;9.10;;;;;;;6.34;100.00;98861.44;4974941;28;20728;-76
2024/03/17 01:01:19;;;;;;;12.20;8.13;;;;;;;6.32;100.00;98858.03;4974293;28;20235;-77
2024/03/17 01:03:46;;;;;;;13.57;8.13;;;;;;;6.33;100.00;98857.13;4974917;28;20318;-77
2024/03/17 01:06:12;;;;;;;11.23;7.40;;;;;;;6.33;100.00;98851.88;4974496;28;20214;-76
2024/03/17 01:08:38;;;;;;;12.13;8.03;;;;;;;6.39;100.00;98849.00;4973735;28;20673;-77
2024/03/17 01:11:08;;;;;;;10.97;6.93;;;;;;;6.37;100.00;98845.59;4974048;28;20235;-77
2024/03/17 01:13:41;;;;;;;11.77;7.07;;;;;;;6.45;100.00;98840.84;4974443;28;20211;-77
2024/03/17 01:16:06;;;;;;;10.07;6.97;;;;;;;6.44;100.00;98843.53;4974438;28;20249;-77
2024/03/17 01:18:34;;;;;;;10.07;6.83;;;;;;;6.50;100.00;98844.16;4974367;28;20244;-76
2024/03/17 01:21:00;;;;;;;10.43;6.87;;;;;;;6.35;100.00;98842.16;4974216;28;20597;-77
2024/03/17 01:23:26;;;;;;;9.07;6.63;;;;;;;6.27;100.00;98841.63;4974496;28;20330;-77
2024/03/17 01:25:53;;;;;;;11.07;7.40;;;;;;;6.18;100.00;98841.97;4974552;28;20210;-77
2024/03/17 01:28:20;;;;;;;9.23;6.50;;;;;;;6.05;100.00;98842.56;4973945;28;20238;-77
2024/03/17 01:30:48;;;;;;;8.43;5.63;;;;;;;5.96;100.00;98849.00;4973728;28;20606;-77
2024/03/17 01:33:15;;;;;;;8.17;6.00;;;;;;;5.86;100.00;98849.44;4974072;28;20211;-76
2024/03/17 01:35:41;;;;;;;8.83;5.93;;;;;;;5.88;100.00;98839.72;4973964;28;20215;-77
2024/03/17 01:38:07;;;;;;;7.50;5.83;;;;;;;5.84;100.00;98838.13;4974085;28;20225;-76
2024/03/17 01:40:33;;;;;;;9.27;6.20;;;;;;;5.82;100.00;98835.59;4973631;28;20230;-77
2024/03/17 01:43:00;;;;;;;10.00;6.30;;;;;;;5.86;100.00;98826.66;4973987;28;20215;-76
2024/03/17 01:45:29;;;;;;;9.00;6.83;;;;;;;5.88;100.00;98824.88;4973884;28;20222;-77
2024/03/17 01:47:58;;;;;;;10.97;6.40;;;;;;;5.85;100.00;98826.72;4973771;28;20215;-77
2024/03/17 01:50:25;;;;;;;15.33;9.37;;;;;;;5.85;100.00;98826.72;4973891;28;20288;-76
2024/03/17 01:52:53;;;;;;;16.77;9.37;;;;;;;5.91;100.00;98819.47;4973925;28;20547;-76
2024/03/17 01:55:21;;;;;;;18.23;9.77;;;;;;;5.97;100.00;98818.38;4973901;28;20218;-77
2024/03/17 01:57:49;;;;;;;16.10;9.10;;;;;;;5.97;100.00;98808.75;4973763;28;20298;-76
2024/03/17 02:00:15;;;;;;;14.83;8.87;;;;;;;5.95;100.00;98802.72;4973144;28;20213;-76
2024/03/17 02:02:41;;;;;;;12.83;7.97;;;;;;;5.92;100.00;98805.44;4973408;28;20212;-77
2024/03/17 02:05:08;;;;;;;14.13;8.33;;;;;;;5.92;100.00;98805.44;4973675;28;20208;-77
2024/03/17 02:07:35;;;;;;;10.53;7.43;;;;;;;5.97;100.00;98803.50;4973437;28;20210;-77
2024/03/17 02:10:03;;;;;;;10.33;7.47;;;;;;;5.94;100.00;98803.63;4973194;28;20233;-76
2024/03/17 02:12:31;;;;;;;9.60;6.70;;;;;;;5.91;100.00;98793.25;4973162;28;20265;-76
2024/03/17 02:14:57;;;;;;;9.00;6.77;;;;;;;5.84;100.00;98786.53;4973452;28;20213;-76
2024/03/17 02:17:25;;;;;;;8.40;6.43;;;;;;;5.79;100.00;98790.22;4973535;28;20217;-77
2024/03/17 02:19:51;;;;;;;10.47;7.43;;;;;;;5.76;100.00;98785.97;4973163;28;20221;-77
2024/03/17 02:22:18;;;;;;;9.73;7.10;;;;;;;5.79;100.00;98788.44;4972787;28;20722;-76
2024/03/17 02:24:45;;;;;;;12.20;7.77;;;;;;;5.80;100.00;98782.31;4973212;28;20634;-77
2024/03/17 02:27:11;;;;;;;9.50;6.90;;;;;;;5.82;100.00;98780.50;4973006;28;20242;-77
2024/03/17 02:29:37;;;;;;;8.00;6.03;;;;;;;5.73;100.00;98785.25;4973049;28;20245;-77
2024/03/17 02:32:06;;;;;;;10.73;6.90;;;;;;;5.67;100.00;98785.47;4972831;28;20227;-77
2024/03/17 02:34:33;;;;;;;11.30;7.10;;;;;;;5.71;100.00;98782.66;4973232;28;20290;-77
2024/03/17 02:36:59;;;;;;;10.40;7.37;;;;;;;5.70;100.00;98788.84;4973142;28;20211;-77
2024/03/17 02:39:34;;;;;;;10.40;8.07;;;;;;;5.70;100.00;98782.72;4973108;28;20585;-76
2024/03/17 02:42:02;;;;;;;10.60;7.40;;;;;;;5.66;100.00;98786.38;4972705;28;20639;-77
2024/03/17 02:44:30;;;;;;;14.47;8.80;;;;;;;5.67;100.00;98783.69;4973217;28;20627;-76
2024/03/17 02:46:57;;;;;;;10.63;7.97;;;;;;;5.68;100.00;98780.16;4973005;28;20265;-76
2024/03/17 02:49:24;;;;;;;11.23;7.80;;;;;;;5.69;100.00;98771.38;4972617;28;20237;-76
2024/03/17 02:51:50;;;;;;;10.47;7.47;;;;;;;5.72;100.00;98781.75;4972452;28;20239;-76
2024/03/17 02:54:17;;;;;;;9.47;7.30;;;;;;;5.71;100.00;98768.69;4972749;28;20696;-76
2024/03/17 02:56:44;;;;;;;10.70;7.57;;;;;;;5.71;100.00;98766.94;4972707;28;20236;-77
2024/03/17 02:59:11;;;;;;;11.47;7.60;;;;;;;5.69;100.00;98766.13;4972675;28;20833;-77
2024/03/17 03:01:37;;;;;;;12.13;7.53;;;;;;;5.65;100.00;98759.31;4972760;28;20241;-77
2024/03/17 03:04:05;;;;;;;9.07;6.30;;;;;;;5.62;100.00;98763.81;4972821;28;20229;-77
2024/03/17 03:06:32;;;;;;;10.07;7.20;;;;;;;5.59;100.00;98763.94;4972631;28;20249;-77
2024/03/17 03:08:59;;;;;;;10.17;7.10;;;;;;;5.59;100.00;98770.03;4973087;28;20588;-76
2024/03/17 03:11:25;;;;;;;9.17;6.13;;;;;;;5.54;100.00;98764.13;4972523;28;20241;-76
2024/03/17 03:13:53;;;;;;;8.93;6.67;;;;;;;5.44;100.00;98773.25;4972757;28;20220;-76
2024/03/17 03:16:20;;;;;;;7.07;5.60;;;;;;;5.36;100.00;98767.44;4972439;28;20222;-77
2024/03/17 03:18:46;;;;;;;8.63;6.43;;;;;;;5.29;100.00;98771.22;4972597;28;20207;-77
2024/03/17 03:21:13;;;;;;;8.87;6.33;;;;;;;5.25;100.00;98764.38;4972329;28;20259;-77
2024/03/17 03:23:40;;;;;;;8.40;6.40;;;;;;;5.19;100.00;98767.22;4972338;28;20220;-77
2024/03/17 03:26:09;;;;;;;8.30;5.80;;;;;;;5.16;100.00;98769.13;4972719;28;20218;-76
2024/03/17 03:28:36;;;;;;;11.13;7.50;;;;;;;5.09;100.00;98768.50;4972735;28;20222;-77
2024/03/17 03:31:04;;;;;;;8.33;6.03;;;;;;;5.04;100.00;98770.44;4973380;28;20239;-77
2024/03/17 03:33:31;;;;;;;10.20;6.23;;;;;;;4.99;100.00;98775.00;4976269;28;20217;-76
2024/03/17 03:35:58;;;;;;;9.30;6.73;;;;;;;4.98;100.00;98764.56;4976208;28;20673;-76
2024/03/17 03:38:25;;;;;;;11.57;6.83;;;;;;;4.99;100.00;98761.88;4976405;28;20612;-76
2024/03/17 03:40:52;;;;;;;11.27;7.27;;;;;;;5.00;100.00;98763.59;4976000;28;20225;-76
2024/03/17 03:43:18;;;;;;;10.43;6.90;;;;;;;4.97;100.00;98763.72;4976552;28;20211;-76
2024/03/17 03:45:46;;;;;;;10.77;6.57;;;;;;;4.92;100.00;98767.41;4976324;28;20220;-78
2024/03/17 03:48:14;;;;;;;14.27;7.03;;;;;;;4.88;100.00;98766.66;4976042;28;20672;-76
2024/03/17 03:50:40;;;;;;;12.50;7.07;;;;;;;4.89;100.00;98764.91;4975618;28;20642;-77
2024/03/17 03:53:07;;;;;;;11.93;7.27;;;;;;;4.86;100.00;98755.41;4976773;28;20238;-77
2024/03/17 03:55:34;;;;;;;9.47;6.60;;;;;;;4.84;100.00;98762.44;4976381;28;20221;-77
2024/03/17 03:58:00;;;;;;;9.50;6.73;;;;;;;4.83;100.00;98765.13;4975952;28;20711;-76
2024/03/17 04:00:31;;;;;;;9.17;6.43;;;;;;;4.78;100.00;98762.69;4975490;28;20758;-76
2024/03/17 04:02:57;;;;;;;11.53;6.83;;;;;;;4.73;100.00;98764.63;4976035;28;20294;-76
2024/03/17 04:05:25;;;;;;;11.37;6.67;;;;;;;4.70;100.00;98753.41;4975632;28;20219;-76
2024/03/17 04:07:51;;;;;;;12.50;7.03;;;;;;;4.67;100.00;98770.06;4975920;28;20332;-77
2024/03/17 04:10:18;;;;;;;10.73;6.93;;;;;;;4.64;100.00;98762.31;4975437;28;20238;-77
2024/03/17 04:12:45;;;;;;;14.13;8.33;;;;;;;4.57;100.00;98759.97;4975445;28;20215;-76
2024/03/17 04:15:12;;;;;;;12.67;7.67;;;;;;;4.53;100.00;98761.00;4975451;28;20238;-76
2024/03/17 04:17:38;;;;;;;10.67;7.07;;;;;;;4.47;100.00;98755.97;4975336;28;20210;-77
2024/03/17 04:20:08;;;;;;;12.00;7.43;;;;;;;4.39;100.00;98764.09;4975052;28;20222;-76
2024/03/17 04:22:36;;;;;;;12.17;6.97;;;;;;;4.32;100.00;98765.22;4975128;28;20701;-76
2024/03/17 04:25:03;;;;;;;12.33;6.87;;;;;;;4.27;100.00;98764.50;4975509;28;20244;-76
2024/03/17 04:27:30;;;;;;;13.93;7.70;;;;;;;4.27;100.00;98769.75;4975337;28;20315;-76
2024/03/17 04:29:59;;;;;;;12.60;7.67;;;;;;;4.28;100.00;98762.75;4975066;28;20255;-76
2024/03/17 04:32:27;;;;;;;13.43;7.43;;;;;;;4.30;100.00;98769.66;4974895;28;20292;-76
2024/03/17 04:34:53;;;;;;;14.73;7.60;;;;;;;4.27;100.00;98764.50;4975051;28;20216;-76
2024/03/17 04:37:20;;;;;;;11.50;6.93;;;;;;;4.26;100.00;98765.41;4975272;28;20225;-76
2024/03/17 04:39:48;;;;;;;14.13;7.33;;;;;;;4.24;100.00;98772.47;4975267;28;20583;-76
2024/03/17 04:42:16;;;;;;;11.23;7.33;;;;;;;4.24;100.00;98769.88;4973349;28;20245;-76
2024/03/17 04:44:43;;;;;;;12.50;7.57;;;;;;;4.22;100.00;98770.81;4974728;28;20341;-77
2024/03/17 04:47:10;;;;;;;10.93;6.77;;;;;;;4.22;100.00;98766.41;4975085;28;20211;-77
2024/03/17 04:49:37;;;;;;;12.40;7.20;;;;;;;4.25;100.00;98770.69;4974825;28;20242;-77
2024/03/17 04:52:04;;;;;;;9.73;6.40;;;;;;;4.22;100.00;98766.41;4974285;28;20227;-76
2024/03/17 04:54:31;;;;;;;10.83;6.37;;;;;;;4.25;100.00;98763.72;4974723;28;20210;-75
2024/03/17 04:56:59;;;;;;;8.27;6.17;;;;;;;4.31;100.00;98776.59;4974534;28;20241;-77
2024/03/17 04:59:26;;;;;;;9.33;6.43;;;;;;;4.29;100.00;98775.75;4974343;28;20213;-76
2024/03/17 05:01:53;;;;;;;8.63;6.20;;;;;;;4.30;100.00;98769.66;4974141;28;20230;-77
2024/03/17 05:04:20;;;;;;;8.27;5.83;;;;;;;4.27;100.00;98774.97;4974380;28;20339;-77
2024/03/17 05:06:48;;;;;;;7.27;5.57;;;;;;;4.30;100.00;98768.78;4974197;28;20676;-76
2024/03/17 05:09:15;;;;;;;9.00;6.07;;;;;;;4.33;100.00;98774.75;4974264;28;20589;-77
2024/03/17 05:11:41;;;;;;;7.60;5.60;;;;;;;4.39;100.00;98774.56;4973833;28;20233;-77
2024/03/17 05:14:09;;;;;;;9.50;6.30;;;;;;;4.47;100.00;98767.28;4973970;28;20225;-77
2024/03/17 05:16:36;;;;;;;9.07;6.00;;;;;;;4.50;100.00;98761.09;4974055;28;20221;-77
2024/03/17 05:19:03;;;;;;;9.87;6.47;;;;;;;4.58;100.00;98764.31;4974445;28;20221;-77
2024/03/17 05:21:30;;;;;;;8.57;5.67;;;;;;;4.54;100.00;98768.81;4973820;28;20323;-77
2024/03/17 05:23:57;;;;;;;10.20;6.83;;;;;;;4.55;100.00;98770.50;4974285;28;20243;-78
2024/03/17 05:26:25;;;;;;;10.23;6.53;;;;;;;4.60;100.00;98768.59;4974041;28;20224;-77
2024/03/17 05:28:51;;;;;;;9.40;6.17;;;;;;;4.67;100.00;98770.06;4973942;28;20264;-77
2024/03/17 05:31:21;;;;;;;18.20;6.53;;;;;;;4.76;100.00;98761.88;4971898;28;20242;-77
2024/03/17 05:33:48;;;;;;;8.53;6.37;;;;;;;4.83;100.00;98767.75;4973730;28;20221;-77
2024/03/17 05:36:15;;;;;;;10.17;6.50;;;;;;;4.86;100.00;98770.25;4973757;28;20215;-77
2024/03/17 05:38:41;;;;;;;9.90;6.27;;;;;;;4.85;100.00;98773.78;4973878;28;20220;-77
2024/03/17 05:41:09;;;;;;;9.50;5.97;;;;;;;4.87;100.00;98783.28;4973309;28;20736;-77
2024/03/17 05:43:37;;;;;;;9.80;5.90;;;;;;;4.90;100.00;98777.09;4973877;28;20221;-77
2024/03/17 05:46:06;;;;;;;18.40;8.77;;;;;;;4.92;100.00;98772.66;4973762;28;20211;-77
2024/03/17 05:48:34;;;;;;;13.57;7.43;;;;;;;4.95;100.00;98762.91;4973668;28;20215;-77
2024/03/17 05:51:02;;;;;;;10.13;6.43;;;;;;;4.98;100.00;98765.44;4973120;28;20610;-77
2024/03/17 05:53:28;;;;;;;13.93;7.37;;;;;;;5.02;100.00;98761.75;4973305;28;20221;-77
2024/03/17 05:55:55;;;;;;;13.10;7.10;;;;;;;5.06;100.00;98762.53;4973721;28;20422;-77
2024/03/17 05:58:22;;;;;;;12.73;6.97;;;;;;;5.06;100.00;98760.75;4973190;28;20218;-76
2024/03/17 06:00:49;;;;;;;10.93;7.13;;;;;;;5.11;100.00;98758.81;4972950;28;20260;-77
2024/03/17 06:03:15;;;;;;;10.23;6.97;;;;;;;5.11;100.00;98755.31;4973525;28;20714;-78
2024/03/17 06:05:45;;;;;;;11.60;7.07;;;;;;;5.08;100.00;98756.28;4973484;28;20299;-76
2024/03/17 06:08:12;;;;;;;14.50;7.33;;;;;;;5.03;100.00;98758.25;4973092;28;20559;-76
2024/03/17 06:10:44;;;;;;;17.63;7.90;;;;;;;5.02;100.00;98753.91;4971271;28;20656;-77
2024/03/17 06:13:11;;;;;;;16.17;7.50;;;;;;;5.03;100.00;98752.16;4973600;28;20218;-78
2024/03/17 06:15:39;;;;;;;15.27;7.33;;;;;;;5.06;100.00;98752.06;4973215;28;20763;-78
2024/03/17 06:18:08;;;;;;;18.20;7.40;;;;;;;5.08;100.00;98751.06;4972944;28;20203;-77
2024/03/17 06:20:35;;;;;;;18.10;8.97;;;;;;;5.13;100.00;98743.88;4972580;28;20741;-77
2024/03/17 06:23:03;;;;;;;15.20;7.83;;;;;;;5.15;100.00;98742.09;4973096;28;20207;-77
2024/03/17 06:25:30;;;;;;;15.90;7.13;;;;;;;5.27;100.00;98741.63;4973108;28;20210;-77
2024/03/17 06:27:57;;;;;;;19.03;8.30;;;;;;;5.30;100.00;98748.47;4973060;28;20487;-77
2024/03/17 06:30:23;;;;;;;17.70;8.80;;;;;;;5.32;100.00;98750.13;4973802;28;20245;-78
2024/03/17 06:32:50;;;;;;;17.60;8.03;;;;;;;5.40;100.00;98752.47;4973730;28;20213;-78
2024/03/17 06:35:18;;;;;;;21.63;9.30;;;;;;;5.51;100.00;98745.03;4972953;28;20214;-77
2024/03/17 06:37:45;;;;;;;19.37;8.67;;;;;;;5.54;100.00;98745.75;4973201;28;20681;-77
2024/03/17 06:40:15;;;;;;;17.87;9.53;;;;;;;5.60;100.00;98728.91;4973172;28;20249;-77
2024/03/17 06:42:42;;;;;;;20.27;9.57;;;;;;;5.69;100.00;98729.41;4973174;28;20211;-77
2024/03/17 06:45:09;;;;;;;21.20;10.33;;;;;;;5.79;100.00;98736.00;4973470;28;20596;-78
2024/03/17 06:47:36;;;;;;;19.57;9.43;;;;;;;5.93;100.00;98732.84;4971762;28;20700;-77
2024/03/17 06:50:03;;;;;;;17.37;8.50;;;;;;;6.03;100.00;98740.28;4972921;28;20239;-77
2024/03/17 06:52:30;;;;;;;17.63;8.33;;;;;;;6.15;100.00;98737.13;4972852;28;20220;-77
2024/03/17 06:54:57;;;;;;;15.07;7.70;;;;;;;6.29;100.00;98729.53;4973456;28;20222;-78
2024/03/17 06:57:25;;;;;;;13.37;7.47;;;;;;;6.41;100.00;98731.63;4973666;28;20645;-77
2024/03/17 06:59:52;;;;;;;12.00;6.77;;;;;;;6.49;100.00;98731.31;4972468;28;20221;-77
2024/03/17 07:02:19;;;;;;;15.27;7.00;;;;;;;6.57;100.00;98730.06;4972847;28;20233;-77
2024/03/17 07:04:46;;;;;;;12.57;6.97;;;;;;;6.63;100.00;98724.53;4973024;28;20250;-77
2024/03/17 07:07:13;;;;;;;11.23;7.03;;;;;;;6.69;100.00;98726.88;4976222;28;20215;-77
2024/03/17 07:09:40;;;;;;;12.20;7.03;;;;;;;6.74;100.00;98724.91;4976402;28;20221;-77
2024/03/17 07:12:07;;;;;;;12.13;7.33;;;;;;;6.70;100.00;98723.31;4976958;28;20760;-77
2024/03/17 07:14:35;;;;;;;12.10;7.90;;;;;;;6.72;100.00;98729.34;4976581;28;20214;-78
2024/03/17 07:17:02;;;;;;;12.47;7.57;;;;;;;6.73;100.00;98723.19;4976240;28;20218;-77
2024/03/17 07:19:30;;;;;;;12.40;7.63;;;;;;;6.78;100.00;98726.47;4976134;28;20212;-77
2024/03/17 07:21:57;;;;;;;13.13;7.93;;;;;;;6.81;100.00;98721.09;4976086;28;20259;-77
2024/03/17 07:24:24;;;;;;;11.93;7.70;;;;;;;6.86;100.00;98734.88;4976185;28;20211;-77
2024/03/17 07:26:50;;;;;;;12.90;8.10;;;;;;;6.89;100.00;98723.38;4976083;28;20224;-77
2024/03/17 07:29:19;;;;;;;14.90;8.17;;;;;;;6.97;100.00;98718.63;4975922;28;20215;-77
2024/03/17 07:31:46;;;;;;;18.13;9.30;;;;;;;7.13;100.00;98723.09;4975961;28;20675;-77
2024/03/17 07:34:13;;;;;;;16.43;8.60;;;;;;;7.30;100.00;98725.78;4976887;28;20209;-77
2024/03/17 07:36:40;;;;;;;20.07;10.50;;;;;;;7.25;100.00;98727.78;4976332;28;20219;-77
2024/03/17 07:39:07;;;;;;;20.33;10.10;;;;;;;7.30;100.00;98731.88;4976563;28;20627;-77
2024/03/17 07:41:33;;;;;;;26.83;12.30;;;;;;;7.19;100.00;98722.81;4975603;28;20231;-77
2024/03/17 07:44:01;;;;;;;27.53;12.77;;;;;;;7.22;100.00;98723.53;4975501;28;20211;-78
2024/03/17 07:46:28;;;;;;;31.87;13.30;;;;;;;7.31;100.00;98716.97;4975128;28;20640;-77
2024/03/17 07:48:56;;;;;;;29.27;13.67;;;;;;;7.40;100.00;98727.06;4975346;28;20625;-77
2024/03/17 07:51:23;;;;;;;22.50;11.33;;;;;;;7.49;100.00;98722.25;4977963;28;20236;-79
2024/03/17 07:53:50;;;;;;;24.40;12.00;;;;;;;7.57;100.00;98720.09;4980500;28;20243;-78
2024/03/17 07:56:17;;;;;;;22.43;11.23;;;;;;;7.71;100.00;98714.16;4983592;28;20220;-78
2024/03/17 07:58:47;;;;;;;19.23;10.87;;;;;;;7.84;100.00;98717.91;4981727;28;20211;-78
2024/03/17 08:01:15;;;;;;;21.10;11.87;;;;;;;7.89;100.00;98708.84;4980706;28;20228;-78
2024/03/17 08:03:43;;;;;;;22.00;13.07;;;;;;;8.12;100.00;98712.94;4981949;28;20678;-78
2024/03/17 08:06:12;;;;;;;21.73;12.83;;;;;;;8.31;100.00;98727.78;4985554;28;20239;-78
2024/03/17 08:08:38;;;;;;;22.10;11.90;;;;;;;8.37;100.00;98721.34;4983607;28;20213;-77
2024/03/17 08:11:05;;;;;;;21.03;12.33;;;;;;;8.35;100.00;98716.19;4977265;28;20242;-78
2024/03/17 08:13:34;;;;;;;22.30;11.90;;;;;;;8.29;100.00;98721.75;4987455;28;20228;-78
2024/03/17 08:16:02;;;;;;;21.10;11.80;;;;;;;8.30;100.00;98722.59;4979205;28;20231;-78
2024/03/17 08:18:29;;;;;;;17.80;10.97;;;;;;;8.32;100.00;98716.31;4975894;28;20224;-77
2024/03/17 08:20:56;;;;;;;18.00;11.33;;;;;;;8.44;100.00;98720.13;4977213;28;20242;-79
2024/03/17 08:23:24;;;;;;;17.53;11.50;;;;;;;8.52;100.00;98717.94;4976056;28;20220;-77
2024/03/17 08:25:54;;;;;;;17.53;12.03;;;;;;;8.68;100.00;98721.47;4980932;28;20315;-77
2024/03/17 08:28:21;;;;;;;16.63;10.37;;;;;;;8.66;100.00;98715.44;4978607;28;20231;-78
2024/03/17 08:30:52;;;;;;;17.30;10.83;;;;;;;8.76;100.00;98725.41;4978071;28;20282;-78
2024/03/17 08:33:19;;;;;;;19.90;13.82;;;;;;;8.97;100.00;98736.59;4977542;28;20430;-79
2024/03/17 08:35:53;;;;;;;18.80;11.73;;;;;;;9.10;100.00;98740.28;4984419;28;20228;-79
2024/03/17 08:38:20;;;;;;;18.00;11.17;;;;;;;9.29;100.00;98738.34;4986162;28;20206;-78
2024/03/17 08:40:49;;;;;;;16.97;11.13;;;;;;;9.36;100.00;98739.75;4983557;28;20242;-81
2024/03/17 08:43:15;;;;;;;16.83;11.80;;;;;;;9.43;100.00;98720.00;4988481;28;20214;-81
2024/03/17 08:45:43;;;;;;;18.03;11.83;;;;;;;9.53;100.00;98715.91;4987791;28;20213;-81
2024/03/17 08:48:10;;;;;;;22.03;13.73;;;;;;;9.64;100.00;98724.94;4988675;28;20212;-80
2024/03/17 08:50:36;;;;;;;20.03;13.93;;;;;;;9.75;100.00;98713.75;4982102;28;20271;-80
2024/03/17 08:53:03;;;;;;;18.20;12.50;;;;;;;9.79;100.00;98707.38;4982846;28;20253;-77
2024/03/17 08:55:30;;;;;;;17.30;12.07;;;;;;;9.82;100.00;98715.13;4973546;28;20214;-78
2024/03/17 08:57:58;;;;;;;14.80;10.53;;;;;;;9.86;100.00;98717.47;4975832;28;20218;-77
2024/03/17 09:00:25;;;;;;;13.90;10.67;;;;;;;9.98;100.00;98708.03;4976508;28;20242;-77
2024/03/17 09:02:51;;;;;;;12.87;9.73;;;;;;;10.05;100.00;98714.69;4976814;28;20734;-78
2024/03/17 09:05:18;;;;;;;13.97;9.50;;;;;;;10.06;100.00;98722.53;4976714;28;20217;-78
2024/03/17 09:07:44;;;;;;;12.93;9.60;;;;;;;10.15;100.00;98727.25;4976787;28;20308;-78
2024/03/17 09:10:13;;;;;;;13.90;10.10;;;;;;;10.18;100.00;98731.53;4977749;28;20224;-77
2024/03/17 09:12:40;;;;;;;13.20;9.80;;;;;;;10.20;100.00;98734.91;4977268;28;20233;-78
2024/03/17 09:15:11;;;;;;;11.53;9.23;;;;;;;10.22;100.00;98727.78;4977614;28;20212;-78
2024/03/17 09:17:39;;;;;;;13.33;9.67;;;;;;;10.32;100.00;98731.56;4976003;28;20212;-78
2024/03/17 09:20:11;;;;;;;10.70;8.83;;;;;;;10.43;100.00;98721.22;4975084;28;20671;-78
2024/03/17 09:22:38;;;;;;;11.47;9.07;;;;;;;10.58;100.00;98730.88;4973899;28;20218;-79
2024/03/17 09:25:07;;;;;;;13.23;8.97;;;;;;;10.72;100.00;98722.97;4973514;28;20218;-77
2024/03/17 09:27:33;;;;;;;12.03;9.13;;;;;;;10.77;100.00;98723.53;4973644;28;20222;-78
2024/03/17 09:30:00;;;;;;;11.23;8.57;;;;;;;10.88;100.00;98727.22;4976760;28;20216;-78
2024/03/17 09:32:28;;;;;;;10.60;8.10;;;;;;;10.94;100.00;98718.09;4977363;28;20265;-78
2024/03/17 09:34:55;;;;;;;9.43;7.53;;;;;;;11.06;100.00;98723.47;4976951;28;20224;-78
2024/03/17 09:37:21;;;;;;;11.83;8.40;;;;;;;11.09;100.00;98717.13;4976294;28;20209;-79
2024/03/17 09:39:48;;;;;;;9.53;8.10;;;;;;;11.17;100.00;98720.13;4976760;28;20563;-80
2024/03/17 09:42:18;;;;;;;10.87;8.10;;;;;;;11.25;100.00;98720.53;4979355;28;20261;-78
2024/03/17 09:44:46;;;;;;;10.37;8.13;;;;;;;11.29;100.00;98717.59;4978976;28;20673;-80
2024/03/17 09:47:19;;;;;;;10.17;8.40;;;;;;;11.35;100.00;98713.69;4977435;28;20589;-80
2024/03/17 09:49:48;;;;;;;8.93;7.73;;;;;;;11.46;100.00;98712.09;4973527;28;20214;-80
2024/03/17 09:52:21;;;;;;;8.73;7.83;;;;;;;11.51;100.00;98714.44;4979645;28;20270;-79
2024/03/17 09:54:49;;;;;;;10.73;9.13;;;;;;;11.43;100.00;98711.44;4978378;28;20713;-79
2024/03/17 09:57:18;;;;;;;10.53;8.80;;;;;;;11.50;100.00;98710.09;4979459;28;20212;-78
2024/03/17 09:59:51;;;;;;;9.63;7.70;;;;;;;11.65;100.00;98725.03;4979484;28;20284;-79
2024/03/17 10:02:19;;;;;;;11.13;8.47;;;;;;;11.81;100.00;98723.09;4979553;28;20227;-79
2024/03/17 10:04:47;;;;;;;8.60;7.07;;;;;;;11.86;100.00;98721.00;4975848;28;20298;-81
2024/03/17 10:07:14;;;;;;;8.83;7.43;;;;;;;12.01;100.00;98720.00;4974766;28;20224;-80
2024/03/17 10:09:41;;;;;;;9.20;6.90;;;;;;;12.02;100.00;98711.94;4974273;28;20218;-80
2024/03/17 10:12:26;;;;;;;9.20;7.13;;;;;;;12.18;100.00;98702.00;4974760;28;20308;-81
2024/03/17 10:14:59;;;;;;;8.13;6.70;;;;;;;12.23;100.00;98704.38;4975997;28;20237;-81
2024/03/17 10:17:30;;;;;;;7.87;6.17;;;;;;;12.30;100.00;98692.41;4977655;28;20693;-80
2024/03/17 10:20:13;;;;;;;8.10;6.77;;;;;;;12.36;100.00;98699.97;4974818;28;20211;-81
2024/03/17 10:22:39;;;;;;;8.30;6.37;;;;;;;12.45;100.00;98694.00;4974573;28;20213;-81
2024/03/17 10:25:09;;;;;;;8.00;6.60;;;;;;;12.53;100.00;98697.00;4974697;28;20221;-83
2024/03/17 10:27:36;;;;;;;8.07;6.50;;;;;;;12.42;100.00;98688.94;4977529;28;20219;-79
2024/03/17 10:30:02;;;;;;;9.50;6.53;;;;;;;12.46;100.00;98691.25;4978720;28;20218;-79
2024/03/17 10:32:29;;;;;;;6.70;5.90;;;;;;;12.42;100.00;98686.28;4977983;28;20240;-79
2024/03/17 10:34:56;;;;;;;7.30;5.60;;;;;;;12.45;100.00;98683.41;4979596;28;20210;-80
2024/03/17 10:37:26;;;;;;;7.03;5.20;;;;;;;12.48;100.00;98677.91;4981836;28;20217;-81
2024/03/17 10:39:55;;;;;;;6.93;5.40;;;;;;;12.52;100.00;98674.94;4981636;28;20198;-81
2024/03/17 10:42:28;;;;;;;6.63;5.40;;;;;;;12.61;100.00;98694.69;4981091;28;20266;-83
2024/03/17 10:44:55;;;;;;;6.40;5.10;;;;;;;12.72;100.00;98697.44;4981053;28;20254;-81
2024/03/17 10:47:23;;;;;;;7.17;4.77;;;;;;;12.86;100.00;98694.69;4983856;28;20211;-82
2024/03/17 10:49:51;;;;;;;7.00;4.67;;;;;;;12.94;100.00;98679.06;4981445;28;20213;-84
2024/03/17 10:52:19;;;;;;;5.60;3.97;;;;;;;13.03;100.00;98659.91;4977113;28;20232;-82
2024/03/17 10:54:49;;;;;;;5.00;4.03;;;;;;;13.12;96.89;98640.66;4979056;28;20211;-78
2024/03/17 10:57:28;;;;;;;4.60;3.83;;;;;;;13.04;85.61;98605.88;4985791;28;20211;-79
2024/03/17 10:59:55;;;;;;;4.37;3.10;;;;;;;13.09;87.87;98628.44;4984911;28;20272;-80
2024/03/17 11:02:27;;;;;;;4.60;3.20;;;;;;;13.36;86.58;98620.31;4975645;28;20251;-78
2024/03/17 11:04:56;;;;;;;3.70;3.13;;;;;;;13.47;83.27;98601.78;4980538;28;20230;-78
2024/03/17 11:07:24;;;;;;;3.60;3.10;;;;;;;13.57;84.34;98619.59;4976208;28;20208;-80
2024/03/17 11:09:55;;;;;;;4.53;3.57;;;;;;;13.66;80.60;98596.81;4972786;28;20216;-78
2024/03/17 11:12:42;;;;;;;4.97;3.70;;;;;;;13.70;79.40;98598.31;4976114;28;20240;-80
2024/03/17 11:15:38;;;;;;;5.03;3.40;;;;;;;13.70;83.01;98608.94;4972898;28;20215;-76
2024/03/17 11:18:31;;;;;;;4.73;3.50;;;;;;;13.82;81.64;98610.66;4968102;28;20638;-80
2024/03/17 11:20:59;;;;;;;5.03;3.53;;;;;;;13.88;80.54;98594.28;4982378;28;20242;-80
2024/03/17 11:23:30;;;;;;;4.73;3.60;;;;;;;13.96;77.29;98570.63;4987275;28;20277;-81
2024/03/17 11:25:59;;;;;;;4.70;3.30;;;;;;;13.89;77.19;98575.56;4987261;28;20211;-79